createdAt,value
2022-12-23T00:00:17.912Z,95370.59
2022-12-23T00:02:46.929Z,95366.81
2022-12-23T00:05:14.637Z,95382.97
2022-12-23T00:07:41.717Z,95366.47
2022-12-23T00:10:10.095Z,95361.16
2022-12-23T00:12:37.350Z,95369.56
2022-12-23T00:15:05.411Z,95367.59
2022-12-23T00:17:32.992Z,95369.91
2022-12-23T00:20:01.743Z,95362.13
2022-12-23T00:22:29.794Z,95360.03
2022-12-23T00:24:59.668Z,95356.16
2022-12-23T00:27:28.777Z,95355.16
2022-12-23T00:30:01.874Z,95346.47
2022-12-23T00:32:29.117Z,95356.16
2022-12-23T00:34:56.853Z,95346.25
2022-12-23T00:37:25.911Z,95333.69
2022-12-23T00:39:55.197Z,95336.31
2022-12-23T00:42:23.875Z,95348.47
2022-12-23T00:44:54.458Z,95349.47
2022-12-23T00:47:21.951Z,95346.47
2022-12-23T00:49:51.903Z,95341.47
2022-12-23T00:52:20.511Z,95342.84
2022-12-23T00:54:50.432Z,95343.69
2022-12-23T00:57:18.948Z,95348.50
2022-12-23T00:59:46.533Z,95339.81
2022-12-23T01:02:13.887Z,95341.16
2022-12-23T01:04:41.251Z,95344.56
2022-12-23T01:07:08.579Z,95339.13
2022-12-23T01:09:36.492Z,95350.22
2022-12-23T01:12:06.452Z,95356.88
2022-12-23T01:14:35.552Z,95353.06
2022-12-23T01:17:03.679Z,95351.66
2022-12-23T01:19:31.647Z,95359.91
2022-12-23T01:21:59.000Z,95357.69
2022-12-23T01:24:28.571Z,95365.38
2022-12-23T01:26:55.902Z,95352.63
2022-12-23T01:29:25.148Z,95361.50
2022-12-23T01:31:52.363Z,95361.50
2022-12-23T01:34:19.995Z,95358.72
2022-12-23T01:36:47.073Z,95366.75
2022-12-23T01:39:14.396Z,95371.59
2022-12-23T01:41:41.545Z,95365.53
2022-12-23T01:44:41.867Z,95365.56
2022-12-23T01:47:16.488Z,95367.56
2022-12-23T01:49:44.627Z,95362.09
2022-12-23T01:52:13.688Z,95368.97
2022-12-23T01:54:43.432Z,95371.84
2022-12-23T01:57:11.142Z,95370.81
2022-12-23T01:59:38.807Z,95368.31
2022-12-23T02:02:06.151Z,95357.69
2022-12-23T02:04:34.953Z,95357.69
2022-12-23T02:07:03.355Z,95358.69
2022-12-23T02:09:32.709Z,95364.16
2022-12-23T02:12:43.560Z,95360.16
2022-12-23T02:15:26.707Z,95351.19
2022-12-23T02:18:10.466Z,95342.34
2022-12-23T02:21:05.706Z,95333.75
2022-12-23T02:24:00.366Z,95352.97
2022-12-23T02:27:05.602Z,95351.59
2022-12-23T02:30:01.897Z,95345.59
2022-12-23T02:32:48.625Z,95348.84
2022-12-23T02:35:29.271Z,95343.91
2022-12-23T02:38:09.763Z,95341.78
2022-12-23T02:40:45.248Z,95356.34
2022-12-23T02:43:23.861Z,95353.25
2022-12-23T02:46:00.439Z,95350.34
2022-12-23T02:48:35.455Z,95354.28
2022-12-23T02:51:06.474Z,95349.31
2022-12-23T02:53:38.028Z,95349.28
2022-12-23T02:56:09.050Z,95355.72
2022-12-23T02:58:43.102Z,95361.88
2022-12-23T03:01:14.868Z,95356.50
2022-12-23T03:03:47.654Z,95331.00
2022-12-23T03:06:22.292Z,95344.78
2022-12-23T03:08:54.105Z,95356.97
2022-12-23T03:11:21.289Z,95358.94
2022-12-23T03:14:19.669Z,95360.53
2022-12-23T03:17:01.046Z,95355.91
2022-12-23T03:19:40.170Z,95343.38
2022-12-23T03:22:19.987Z,95340.34
2022-12-23T03:24:56.457Z,95337.59
2022-12-23T03:27:31.237Z,95337.06
2022-12-23T03:30:05.973Z,95333.09
2022-12-23T03:32:39.230Z,95323.47
2022-12-23T03:35:14.056Z,95332.34
2022-12-23T03:37:46.877Z,95333.81
2022-12-23T03:40:19.677Z,95335.34
2022-12-23T03:42:53.122Z,95334.41
2022-12-23T03:45:41.978Z,95328.00
2022-12-23T03:48:19.700Z,95326.19
2022-12-23T03:50:54.547Z,95326.69
2022-12-23T03:53:28.572Z,95324.22
2022-12-23T03:56:03.004Z,95322.81
2022-12-23T03:58:39.080Z,95314.59
2022-12-23T04:01:18.293Z,95325.22
2022-12-23T04:03:56.243Z,95333.50
2022-12-23T04:06:33.426Z,95326.25
2022-12-23T04:09:04.542Z,95331.91
2022-12-23T04:11:33.422Z,95337.06
2022-12-23T04:14:00.613Z,95331.25
2022-12-23T04:16:29.931Z,95330.81
2022-12-23T04:18:57.128Z,95326.78
2022-12-23T04:21:26.874Z,95321.94
2022-12-23T04:23:53.994Z,95326.53
2022-12-23T04:26:21.238Z,95326.31
2022-12-23T04:28:48.457Z,95321.28
2022-12-23T04:31:15.528Z,95327.91
2022-12-23T04:33:42.832Z,95321.69
2022-12-23T04:36:09.955Z,95326.19
2022-12-23T04:38:38.482Z,95322.41
2022-12-23T04:41:05.629Z,95325.97
2022-12-23T04:43:32.755Z,95330.63
2022-12-23T04:45:59.784Z,95332.81
2022-12-23T04:48:27.080Z,95338.53
2022-12-23T04:50:54.433Z,95341.88
2022-12-23T04:53:21.643Z,95350.34
2022-12-23T04:55:52.268Z,95338.66
2022-12-23T04:58:19.445Z,95333.03
2022-12-23T05:00:46.692Z,95336.47
2022-12-23T05:03:14.213Z,95333.78
2022-12-23T05:05:43.572Z,95338.00
2022-12-23T05:08:10.720Z,95334.78
2022-12-23T05:10:37.863Z,95337.50
2022-12-23T05:13:06.360Z,95334.50
2022-12-23T05:15:33.556Z,95338.00
2022-12-23T05:18:00.773Z,95336.09
2022-12-23T05:20:28.002Z,95339.88
2022-12-23T05:22:55.145Z,95338.84
2022-12-23T05:25:22.279Z,95346.50
2022-12-23T05:27:49.477Z,95337.13
2022-12-23T05:30:18.243Z,95335.63
2022-12-23T05:32:45.394Z,95342.56
2022-12-23T05:35:12.633Z,95338.97
2022-12-23T05:37:39.852Z,95335.56
2022-12-23T05:40:08.472Z,95345.50
2022-12-23T05:42:35.852Z,95337.88
2022-12-23T05:45:03.094Z,95315.66
2022-12-23T05:47:31.768Z,95323.91
2022-12-23T05:49:59.012Z,95324.47
2022-12-23T05:52:26.155Z,95312.56
2022-12-23T05:54:54.128Z,95309.59
2022-12-23T05:57:21.674Z,95317.75
2022-12-23T05:59:49.033Z,95313.28
2022-12-23T06:02:16.482Z,95312.91
2022-12-23T06:04:45.251Z,95307.22
2022-12-23T06:07:12.402Z,95309.84
2022-12-23T06:09:39.738Z,95313.28
2022-12-23T06:12:07.388Z,95311.91
2022-12-23T06:14:34.458Z,95313.41
2022-12-23T06:17:01.726Z,95318.66
2022-12-23T06:19:29.013Z,95316.03
2022-12-23T06:21:57.707Z,95319.81
2022-12-23T06:24:24.895Z,95324.78
2022-12-23T06:26:56.830Z,95320.97
2022-12-23T06:29:25.074Z,95316.28
2022-12-23T06:31:52.444Z,95309.41
2022-12-23T06:34:19.634Z,95317.19
2022-12-23T06:36:46.983Z,95304.13
2022-12-23T06:39:15.622Z,95312.63
2022-12-23T06:41:42.887Z,95316.75
2022-12-23T06:44:10.031Z,95316.75
2022-12-23T06:46:37.217Z,95328.41
2022-12-23T06:49:09.153Z,95332.28
2022-12-23T06:51:39.989Z,95339.22
2022-12-23T06:54:07.289Z,95343.69
2022-12-23T06:56:35.833Z,95351.00
2022-12-23T06:59:03.038Z,95350.47
2022-12-23T07:01:30.442Z,95357.22
2022-12-23T07:03:57.875Z,95362.59
2022-12-23T07:06:25.120Z,95365.00
2022-12-23T07:08:52.384Z,95345.81
2022-12-23T07:11:19.576Z,95343.59
2022-12-23T07:13:48.406Z,95334.47
2022-12-23T07:16:15.625Z,95342.28
2022-12-23T07:18:42.896Z,95348.03
2022-12-23T07:21:19.790Z,95349.34
2022-12-23T07:23:52.562Z,95348.75
2022-12-23T07:26:19.707Z,95361.56
2022-12-23T07:28:48.340Z,95357.22
2022-12-23T07:31:16.119Z,95367.75
2022-12-23T07:33:44.037Z,95369.03
2022-12-23T07:36:11.487Z,95379.94
2022-12-23T07:38:38.653Z,95382.00
2022-12-23T07:41:05.909Z,95387.78
2022-12-23T07:43:33.211Z,95387.00
2022-12-23T07:46:06.849Z,95377.47
2022-12-23T07:48:34.486Z,95358.19
2022-12-23T07:51:02.060Z,95357.97
2022-12-23T07:53:29.351Z,95361.78
2022-12-23T07:55:57.154Z,95364.41
2022-12-23T07:58:24.928Z,95369.69
2022-12-23T08:00:59.718Z,95365.66
2022-12-23T08:03:28.973Z,95363.31
2022-12-23T08:06:05.101Z,95376.59
2022-12-23T08:08:33.681Z,95363.53
2022-12-23T08:11:02.941Z,95366.00
2022-12-23T08:13:32.067Z,95366.84
2022-12-23T08:16:01.654Z,95363.16
2022-12-23T08:18:33.134Z,95367.00
2022-12-23T08:21:02.480Z,95358.06
2022-12-23T08:23:31.190Z,95358.22
2022-12-23T08:26:00.471Z,95361.09
2022-12-23T08:28:28.056Z,95366.81
2022-12-23T08:30:55.332Z,95361.31
2022-12-23T08:33:22.876Z,95371.50
2022-12-23T08:35:54.607Z,95368.66
2022-12-23T08:38:21.951Z,95367.72
2022-12-23T08:40:49.286Z,95367.56
2022-12-23T08:43:16.503Z,95364.50
2022-12-23T08:45:43.809Z,95384.09
2022-12-23T08:48:11.296Z,95378.13
2022-12-23T08:50:38.991Z,95385.66
2022-12-23T08:53:08.324Z,95389.53
2022-12-23T08:55:39.992Z,95392.97
2022-12-23T08:58:08.001Z,95398.47
2022-12-23T09:00:36.268Z,95399.84
2022-12-23T09:03:04.002Z,95410.38
2022-12-23T09:05:31.647Z,95405.91
2022-12-23T09:07:59.633Z,95414.50
2022-12-23T09:10:28.399Z,95413.56
2022-12-23T09:12:57.958Z,95406.34
2022-12-23T09:15:28.420Z,95422.50
2022-12-23T09:17:55.585Z,95412.00
2022-12-23T09:20:22.786Z,95415.63
2022-12-23T09:22:50.214Z,95411.53
2022-12-23T09:25:17.509Z,95411.06
2022-12-23T09:27:46.194Z,95421.22
2022-12-23T09:30:14.586Z,95423.53
2022-12-23T09:32:41.965Z,95430.41
2022-12-23T09:35:10.046Z,95424.91
2022-12-23T09:37:37.299Z,95425.44
2022-12-23T09:40:06.398Z,95440.44
2022-12-23T09:42:53.493Z,95432.91
2022-12-23T09:45:43.245Z,95433.03
2022-12-23T09:48:16.557Z,95426.28
2022-12-23T09:50:44.325Z,95424.44
2022-12-23T09:53:18.248Z,95426.75
2022-12-23T09:55:52.875Z,95421.47
2022-12-23T09:58:30.159Z,95415.06
2022-12-23T10:01:11.137Z,95420.19
2022-12-23T10:03:59.367Z,95413.44
2022-12-23T10:06:30.592Z,95412.53
2022-12-23T10:09:02.828Z,95409.09
2022-12-23T10:11:34.372Z,95417.78
2022-12-23T10:14:14.876Z,95414.16
2022-12-23T10:16:47.299Z,95406.44
2022-12-23T10:19:23.909Z,95416.06
2022-12-23T10:21:56.245Z,95407.72
2022-12-23T10:24:26.274Z,95408.56
2022-12-23T10:26:55.479Z,95398.00
2022-12-23T10:29:26.560Z,95407.75
2022-12-23T10:32:07.128Z,95402.38
2022-12-23T10:34:45.018Z,95405.34
2022-12-23T10:37:24.930Z,95417.84
2022-12-23T10:40:09.191Z,95418.19
2022-12-23T10:42:44.253Z,95410.16
2022-12-23T10:45:28.419Z,95415.22
2022-12-23T10:48:17.898Z,95408.06
2022-12-23T10:50:59.526Z,95402.22
2022-12-23T10:53:37.463Z,95407.06
2022-12-23T10:56:07.631Z,95402.69
2022-12-23T10:58:40.777Z,95404.28
2022-12-23T11:01:24.064Z,95416.00
2022-12-23T11:04:03.435Z,95414.06
2022-12-23T11:06:37.233Z,95414.28
2022-12-23T11:09:07.209Z,95402.72
2022-12-23T11:11:59.575Z,95411.09
2022-12-23T11:14:36.403Z,95399.72
2022-12-23T11:17:17.948Z,95409.56
2022-12-23T11:19:45.453Z,95405.69
2022-12-23T11:22:24.641Z,95419.34
2022-12-23T11:24:55.383Z,95401.06
2022-12-23T11:27:23.259Z,95392.84
2022-12-23T11:29:55.065Z,95409.56
2022-12-23T11:32:27.692Z,95421.06
2022-12-23T11:34:56.702Z,95416.91
2022-12-23T11:37:31.037Z,95410.84
2022-12-23T11:39:58.273Z,95413.94
2022-12-23T11:42:31.414Z,95425.28
2022-12-23T11:45:00.776Z,95414.97
2022-12-23T11:47:38.752Z,95424.69
2022-12-23T11:50:31.375Z,95410.47
2022-12-23T11:53:10.397Z,95408.56
2022-12-23T11:55:45.434Z,95410.28
2022-12-23T11:58:19.917Z,95405.44
2022-12-23T12:00:56.063Z,95406.03
2022-12-23T12:03:31.369Z,95405.09
2022-12-23T12:06:03.872Z,95412.09
2022-12-23T12:08:34.072Z,95401.44
2022-12-23T12:11:06.194Z,95404.78
2022-12-23T12:13:40.114Z,95402.94
2022-12-23T12:16:31.314Z,95398.13
2022-12-23T12:19:05.474Z,95396.66
2022-12-23T12:21:38.103Z,95399.84
2022-12-23T12:24:18.845Z,95397.47
2022-12-23T12:26:52.464Z,95399.94
2022-12-23T12:29:30.976Z,95400.91
2022-12-23T12:32:01.702Z,95391.44
2022-12-23T12:34:42.137Z,95396.44
2022-12-23T12:37:22.358Z,95385.09
2022-12-23T12:39:57.773Z,95387.72
2022-12-23T12:42:34.631Z,95385.34
2022-12-23T12:45:18.072Z,95382.88
2022-12-23T12:48:02.159Z,95381.28
2022-12-23T12:50:48.883Z,95391.19
2022-12-23T12:53:21.444Z,95398.56
2022-12-23T12:55:55.861Z,95403.75
2022-12-23T12:58:25.138Z,95388.53
2022-12-23T13:01:07.791Z,95392.09
2022-12-23T13:04:03.251Z,95390.88
2022-12-23T13:06:42.612Z,95389.56
2022-12-23T13:09:23.062Z,95377.19
2022-12-23T13:11:59.533Z,95376.97
2022-12-23T13:14:41.976Z,95371.28
2022-12-23T13:17:19.927Z,95366.94
2022-12-23T13:20:00.568Z,95372.41
2022-12-23T13:22:34.231Z,95361.72
2022-12-23T13:25:09.320Z,95365.41
2022-12-23T13:27:46.742Z,95375.19
2022-12-23T13:30:18.632Z,95377.72
2022-12-23T13:33:13.393Z,95383.13
2022-12-23T13:36:06.738Z,95375.28
2022-12-23T13:38:57.826Z,95377.38
2022-12-23T13:41:33.157Z,95368.31
2022-12-23T13:44:03.013Z,95387.59
2022-12-23T13:46:44.327Z,95380.25
2022-12-23T13:49:25.536Z,95375.00
2022-12-23T13:52:04.695Z,95390.66
2022-12-23T13:54:46.781Z,95381.28
2022-12-23T13:57:31.953Z,95380.50
2022-12-23T14:00:06.291Z,95385.97
2022-12-23T14:02:50.642Z,95383.91
2022-12-23T14:05:31.356Z,95380.50
2022-12-23T14:08:00.732Z,95365.28
2022-12-23T14:10:37.520Z,95360.44
2022-12-23T14:13:08.172Z,95359.03
2022-12-23T14:16:14.773Z,95355.63
2022-12-23T14:19:07.172Z,95367.53
2022-12-23T14:21:46.872Z,95364.31
2022-12-23T14:24:49.303Z,95383.56
2022-12-23T14:27:35.727Z,95379.88
2022-12-23T14:30:13.383Z,95382.16
2022-12-23T14:32:47.724Z,95388.63
2022-12-23T14:35:53.507Z,95383.63
2022-12-23T14:38:31.589Z,95381.78
2022-12-23T14:41:23.460Z,95373.41
2022-12-23T14:44:00.980Z,95373.31
2022-12-23T14:46:58.334Z,95363.94
2022-12-23T14:49:55.848Z,95369.31
2022-12-23T14:53:07.270Z,95381.03
2022-12-23T14:55:55.964Z,95390.06
2022-12-23T14:58:52.731Z,95384.88
2022-12-23T15:01:30.249Z,95387.44
2022-12-23T15:04:01.757Z,95381.59
2022-12-23T15:06:36.155Z,95381.47
2022-12-23T15:09:05.245Z,95383.72
2022-12-23T15:11:36.037Z,95381.84
2022-12-23T15:14:09.924Z,95379.78
2022-12-23T15:16:39.761Z,95386.06
2022-12-23T15:19:19.058Z,95383.06
2022-12-23T15:21:50.365Z,95387.72
2022-12-23T15:24:23.372Z,95395.16
2022-12-23T15:27:25.418Z,95393.81
2022-12-23T15:30:15.944Z,95402.91
2022-12-23T15:33:01.982Z,95401.66
2022-12-23T15:36:06.113Z,95400.50
2022-12-23T15:38:38.907Z,95403.00
2022-12-23T15:41:15.205Z,95396.75
2022-12-23T15:43:43.754Z,95397.16
2022-12-23T15:46:18.912Z,95403.44
2022-12-23T15:48:50.261Z,95403.22
2022-12-23T15:51:50.137Z,95384.44
2022-12-23T15:54:24.505Z,95398.69
2022-12-23T15:56:54.252Z,95397.53
2022-12-23T15:59:26.936Z,95396.66
2022-12-23T16:01:54.871Z,95386.50
2022-12-23T16:04:28.081Z,95395.06
2022-12-23T16:06:56.241Z,95396.03
2022-12-23T16:09:31.983Z,95404.03
2022-12-23T16:12:01.442Z,95413.31
2022-12-23T16:14:38.228Z,95412.03
2022-12-23T16:17:24.612Z,95405.84
2022-12-23T16:19:55.034Z,95414.78
2022-12-23T16:22:28.297Z,95409.59
2022-12-23T16:25:11.047Z,95402.16
2022-12-23T16:27:42.836Z,95398.63
2022-12-23T16:30:17.950Z,95394.44
2022-12-23T16:32:50.987Z,95395.50
2022-12-23T16:35:30.746Z,95403.88
2022-12-23T16:38:10.213Z,95396.75
2022-12-23T16:40:37.524Z,95390.00
2022-12-23T16:43:04.804Z,95392.84
2022-12-23T16:45:34.214Z,95390.03
2022-12-23T16:48:07.757Z,95390.41
2022-12-23T16:50:36.653Z,95389.16
2022-12-23T16:53:04.442Z,95398.09
2022-12-23T16:55:31.666Z,95407.94
2022-12-23T16:57:58.907Z,95409.59
2022-12-23T17:00:26.294Z,95402.22
2022-12-23T17:02:53.594Z,95400.16
2022-12-23T17:05:23.119Z,95392.03
2022-12-23T17:07:51.937Z,95383.09
2022-12-23T17:10:19.924Z,95388.84
2022-12-23T17:12:49.598Z,95394.16
2022-12-23T17:15:20.025Z,95398.31
2022-12-23T17:17:53.214Z,95402.56
2022-12-23T17:20:23.510Z,95418.13
2022-12-23T17:22:56.001Z,95414.91
2022-12-23T17:25:26.596Z,95406.19
2022-12-23T17:27:54.602Z,95405.00
2022-12-23T17:30:24.026Z,95411.13
2022-12-23T17:32:55.890Z,95413.94
2022-12-23T17:35:24.065Z,95416.03
2022-12-23T17:37:53.452Z,95416.75
2022-12-23T17:40:20.666Z,95414.69
2022-12-23T17:42:48.681Z,95431.91
2022-12-23T17:45:24.757Z,95430.91
2022-12-23T17:47:52.240Z,95424.94
2022-12-23T17:50:20.009Z,95429.31
2022-12-23T17:52:47.363Z,95430.47
2022-12-23T17:55:20.966Z,95426.00
2022-12-23T17:57:48.587Z,95438.63
2022-12-23T18:00:28.102Z,95455.47
2022-12-23T18:03:00.986Z,95480.16
2022-12-23T18:05:30.405Z,95506.47
2022-12-23T18:08:00.052Z,95485.00
2022-12-23T18:10:33.682Z,95497.75
2022-12-23T18:13:04.159Z,95499.44
2022-12-23T18:15:35.627Z,95489.72
2022-12-23T18:18:13.341Z,95489.03
2022-12-23T18:20:42.454Z,95495.03
2022-12-23T18:23:14.240Z,95499.78
2022-12-23T18:25:43.442Z,95496.84
2022-12-23T18:28:11.559Z,95497.56
2022-12-23T18:30:38.928Z,95496.03
2022-12-23T18:33:06.480Z,95508.19
2022-12-23T18:35:38.222Z,95517.91
2022-12-23T18:38:05.761Z,95524.00
2022-12-23T18:40:33.356Z,95527.78
2022-12-23T18:43:01.982Z,95519.53
2022-12-23T18:45:33.482Z,95522.91
2022-12-23T18:48:01.661Z,95520.63
2022-12-23T18:50:29.520Z,95527.63
2022-12-23T18:52:57.111Z,95523.41
2022-12-23T18:55:24.938Z,95529.56
2022-12-23T18:57:52.879Z,95528.94
2022-12-23T19:00:24.200Z,95536.13
2022-12-23T19:02:53.327Z,95527.34
2022-12-23T19:05:23.193Z,95526.56
2022-12-23T19:07:51.717Z,95519.69
2022-12-23T19:10:21.620Z,95504.72
2022-12-23T19:12:48.918Z,95499.97
2022-12-23T19:15:16.258Z,95490.53
2022-12-23T19:17:45.340Z,95486.16
2022-12-23T19:20:14.998Z,95483.88
2022-12-23T19:22:42.127Z,95478.84
2022-12-23T19:25:16.079Z,95484.31
2022-12-23T19:27:44.131Z,95481.25
2022-12-23T19:30:14.079Z,95469.53
2022-12-23T19:32:41.499Z,95477.66
2022-12-23T19:35:13.763Z,95478.38
2022-12-23T19:37:41.320Z,95485.22
2022-12-23T19:40:10.262Z,95500.72
2022-12-23T19:42:37.931Z,95504.31
2022-12-23T19:45:06.888Z,95505.84
2022-12-23T19:47:34.100Z,95492.50
2022-12-23T19:50:01.350Z,95488.25
2022-12-23T19:52:30.165Z,95465.09
2022-12-23T19:54:57.347Z,95460.56
2022-12-23T19:57:24.441Z,95453.09
2022-12-23T19:59:51.606Z,95458.34
2022-12-23T20:02:18.777Z,95477.63
2022-12-23T20:04:46.402Z,95464.72
2022-12-23T20:07:13.638Z,95444.22
2022-12-23T20:09:42.281Z,95457.50
2022-12-23T20:12:09.440Z,95449.88
2022-12-23T20:14:36.504Z,95455.44
2022-12-23T20:17:03.720Z,95450.03
2022-12-23T20:19:30.926Z,95452.16
2022-12-23T20:21:58.083Z,95461.50
2022-12-23T20:24:25.342Z,95460.47
2022-12-23T20:26:54.040Z,95461.16
2022-12-23T20:29:21.379Z,95473.25
2022-12-23T20:31:48.692Z,95461.47
2022-12-23T20:34:17.880Z,95448.00
2022-12-23T20:36:45.354Z,95460.53
2022-12-23T20:39:13.211Z,95456.41
2022-12-23T20:41:40.401Z,95460.78
2022-12-23T20:44:34.023Z,95443.41
2022-12-23T20:46:56.307Z,95455.59
2022-12-23T20:49:23.640Z,95457.16
2022-12-23T20:51:50.796Z,95464.16
2022-12-23T20:54:18.026Z,95461.06
2022-12-23T20:56:45.461Z,95449.44
2022-12-23T20:59:14.163Z,95448.88
2022-12-23T21:01:41.956Z,95466.38
2022-12-23T21:04:12.021Z,95473.59
2022-12-23T21:06:39.446Z,95462.50
2022-12-23T21:09:08.497Z,95451.00
2022-12-23T21:11:38.283Z,95464.06
2022-12-23T21:14:07.038Z,95455.75
2022-12-23T21:16:37.547Z,95464.28
2022-12-23T21:19:05.681Z,95466.97
2022-12-23T21:21:32.868Z,95459.41
2022-12-23T21:24:03.123Z,95449.69
2022-12-23T21:26:31.661Z,95455.75
2022-12-23T21:29:01.547Z,95459.59
2022-12-23T21:31:30.524Z,95457.97
2022-12-23T21:33:59.358Z,95476.75
2022-12-23T21:36:30.584Z,95477.34
2022-12-23T21:38:59.561Z,95469.44
2022-12-23T21:41:30.929Z,95471.41
2022-12-23T21:43:59.945Z,95471.06
2022-12-23T21:46:29.177Z,95480.78
2022-12-23T21:48:59.707Z,95480.91
2022-12-23T21:51:35.026Z,95478.03
2022-12-23T21:54:06.105Z,95488.56
2022-12-23T21:56:33.909Z,95490.06
2022-12-23T21:59:03.679Z,95486.69
2022-12-23T22:01:32.312Z,95468.78
2022-12-23T22:04:01.241Z,95471.16
2022-12-23T22:06:32.308Z,95461.84
2022-12-23T22:09:01.187Z,95451.69
2022-12-23T22:11:30.720Z,95449.63
2022-12-23T22:13:59.652Z,95463.25
2022-12-23T22:16:29.583Z,95457.81
2022-12-23T22:18:59.023Z,95448.25
2022-12-23T22:21:30.487Z,95450.94
2022-12-23T22:23:58.323Z,95456.72
2022-12-23T22:26:29.083Z,95464.97
2022-12-23T22:28:58.022Z,95449.47
2022-12-23T22:31:32.326Z,95456.38
2022-12-23T22:34:00.674Z,95457.06
2022-12-23T22:36:29.643Z,95437.38
2022-12-23T22:38:59.644Z,95438.78
2022-12-23T22:41:28.197Z,95443.47
2022-12-23T22:43:56.225Z,95446.75
2022-12-23T22:46:25.177Z,95451.38
2022-12-23T22:48:53.485Z,95447.00
2022-12-23T22:51:22.752Z,95461.41
2022-12-23T22:53:51.806Z,95456.72
2022-12-23T22:56:20.748Z,95459.28
2022-12-23T22:58:48.832Z,95476.75
2022-12-23T23:01:22.332Z,95485.25
2022-12-23T23:03:50.477Z,95475.28
2022-12-23T23:06:17.803Z,95473.81
2022-12-23T23:08:44.960Z,95456.16
2022-12-23T23:11:13.501Z,95473.03
2022-12-23T23:13:40.786Z,95472.56
2022-12-23T23:16:08.877Z,95476.50
2022-12-23T23:18:36.059Z,95476.69
2022-12-23T23:21:03.532Z,95479.25
2022-12-23T23:23:31.303Z,95497.16
2022-12-23T23:25:58.838Z,95501.88
2022-12-23T23:28:28.861Z,95504.72
2022-12-23T23:31:23.928Z,95518.88
2022-12-23T23:33:43.445Z,95521.22
2022-12-23T23:36:11.529Z,95534.66
2022-12-23T23:38:39.062Z,95533.38
2022-12-23T23:41:06.277Z,95535.41
2022-12-23T23:43:34.999Z,95529.34
2022-12-23T23:46:02.160Z,95531.31
2022-12-23T23:48:29.377Z,95524.56
2022-12-23T23:51:05.165Z,95539.75
2022-12-23T23:53:32.523Z,95545.88
2022-12-23T23:56:05.321Z,95557.47
2022-12-23T23:58:34.872Z,95548.63
